Dufftown, United Kingdom
Current Conditions -  °F | °C
As of 3:50 AM on Thursday 23 Oct 2014 (Local Time) from EGQS Reporting Station
Scattered Clouds Scattered Clouds  
Wind Chill: 13°   Ceiling: Unl
Heat Index: 13°   Visibility: 6mi
Dew Point:   Wind: 10mph
Humidity: 77%   Direction: 220°SW
Pressure: 29.65"   Gusts: NA
Location:  57.43°N, 3.13°W
Report Text: EGQS 230250Z 22009KT 9999 SCT040 13/09 Q1004 BLU
Loading
Personal Weather Stations






























Interactive Weather Map
Tropical Storm Tracking
New forecast layout! Learn more

10-Day Weather Forecast

Advertisements
Track Severe Weather on mobile